createdAt,value
2023-03-02T00:01:49.605Z,102525.16
2023-03-02T00:04:21.571Z,102514.81
2023-03-02T00:06:50.943Z,102515.66
2023-03-02T00:09:20.457Z,102510.13
2023-03-02T00:11:48.901Z,102508.34
2023-03-02T00:14:16.921Z,102509.03
2023-03-02T00:16:44.829Z,102507.47
2023-03-02T00:19:12.741Z,102509.91
2023-03-02T00:21:41.292Z,102493.91
2023-03-02T00:24:09.851Z,102492.22
2023-03-02T00:26:39.197Z,102496.00
2023-03-02T00:29:07.059Z,102496.97
2023-03-02T00:31:35.272Z,102495.56
2023-03-02T00:34:03.223Z,102495.56
2023-03-02T00:36:31.199Z,102498.38
2023-03-02T00:38:59.356Z,102498.53
2023-03-02T00:41:27.282Z,102491.31
2023-03-02T00:43:56.877Z,102495.94
2023-03-02T00:46:26.096Z,102498.53
2023-03-02T00:48:54.163Z,102499.47
2023-03-02T00:51:22.460Z,102497.69
2023-03-02T00:53:50.406Z,102501.47
2023-03-02T00:56:18.410Z,102501.22
2023-03-02T00:58:50.275Z,102493.84
2023-03-02T01:01:19.589Z,102491.88
2023-03-02T01:03:51.347Z,102498.69
2023-03-02T01:06:22.180Z,102503.22
2023-03-02T01:08:50.678Z,102492.59
2023-03-02T01:11:20.099Z,102493.19
2023-03-02T01:13:48.494Z,102496.97
2023-03-02T01:16:17.053Z,102491.50
2023-03-02T01:18:46.378Z,102488.47
2023-03-02T01:21:16.775Z,102483.44
2023-03-02T01:23:44.897Z,102478.31
2023-03-02T01:26:12.808Z,102483.69
2023-03-02T01:28:40.735Z,102485.38
2023-03-02T01:31:08.644Z,102480.00
2023-03-02T01:33:36.692Z,102478.06
2023-03-02T01:36:06.750Z,102478.06
2023-03-02T01:38:34.754Z,102468.03
2023-03-02T01:41:02.710Z,102470.13
2023-03-02T01:43:30.741Z,102473.53
2023-03-02T01:46:02.694Z,102472.69
2023-03-02T01:48:48.098Z,102468.03
2023-03-02T01:51:24.748Z,102465.06
2023-03-02T01:53:55.984Z,102473.84
2023-03-02T01:56:31.383Z,102453.47
2023-03-02T01:59:03.486Z,102455.28
2023-03-02T02:01:33.515Z,102449.91
2023-03-02T02:04:01.776Z,102451.75
2023-03-02T02:06:35.882Z,102459.81
2023-03-02T02:09:07.028Z,102450.19
2023-03-02T02:11:35.381Z,102452.31
2023-03-02T02:14:04.183Z,102451.75
2023-03-02T02:16:34.401Z,102451.47
2023-03-02T02:19:04.041Z,102447.06
2023-03-02T02:21:33.375Z,102439.69
2023-03-02T02:24:10.464Z,102440.09
2023-03-02T02:26:43.575Z,102446.31
2023-03-02T02:29:15.304Z,102443.91
2023-03-02T02:31:48.307Z,102450.38
2023-03-02T02:34:23.200Z,102443.72
2023-03-02T02:36:57.286Z,102439.47
2023-03-02T02:39:29.978Z,102443.38
2023-03-02T02:42:01.781Z,102446.47
2023-03-02T02:44:30.847Z,102442.97
2023-03-02T02:46:59.124Z,102444.19
2023-03-02T02:49:31.990Z,102448.13
2023-03-02T02:52:00.496Z,102447.41
2023-03-02T02:54:29.812Z,102449.75
2023-03-02T02:57:01.685Z,102443.53
2023-03-02T02:59:34.091Z,102450.88
2023-03-02T03:02:03.105Z,102443.22
2023-03-02T03:04:33.042Z,102438.13
2023-03-02T03:07:02.928Z,102448.25
2023-03-02T03:09:32.127Z,102437.78
2023-03-02T03:12:05.265Z,102448.66
2023-03-02T03:15:02.649Z,102453.41
2023-03-02T03:17:31.469Z,102443.94
2023-03-02T03:20:06.501Z,102452.84
2023-03-02T03:22:38.277Z,102454.94
2023-03-02T03:25:08.614Z,102444.44
2023-03-02T03:27:38.149Z,102448.38
2023-03-02T03:30:07.813Z,102443.66
2023-03-02T03:32:36.908Z,102442.81
2023-03-02T03:35:08.825Z,102440.38
2023-03-02T03:37:37.097Z,102442.59
2023-03-02T03:40:06.872Z,102441.88
2023-03-02T03:42:35.256Z,102439.19
2023-03-02T03:45:05.129Z,102437.75
2023-03-02T03:47:34.942Z,102441.41
2023-03-02T03:50:04.763Z,102439.97
2023-03-02T03:52:32.926Z,102448.28
2023-03-02T03:55:11.328Z,102441.91
2023-03-02T03:57:39.715Z,102442.19
2023-03-02T04:00:34.693Z,102438.91
2023-03-02T04:03:08.230Z,102434.50
2023-03-02T04:05:36.184Z,102453.53
2023-03-02T04:08:05.190Z,102446.59
2023-03-02T04:10:33.992Z,102453.19
2023-03-02T04:13:03.181Z,102461.50
2023-03-02T04:15:31.700Z,102456.13
2023-03-02T04:18:02.229Z,102463.56
2023-03-02T04:20:31.770Z,102460.28
2023-03-02T04:23:00.808Z,102458.56
2023-03-02T04:25:30.847Z,102461.50
2023-03-02T04:28:04.162Z,102465.91
2023-03-02T04:30:37.054Z,102457.22
2023-03-02T04:33:06.564Z,102466.38
2023-03-02T04:35:36.306Z,102463.59
2023-03-02T04:38:05.401Z,102465.41
2023-03-02T04:40:33.446Z,102461.00
2023-03-02T04:43:01.387Z,102460.16
2023-03-02T04:45:55.490Z,102464.44
2023-03-02T04:48:25.593Z,102459.22
2023-03-02T04:50:53.701Z,102463.59
2023-03-02T04:53:21.694Z,102457.63
2023-03-02T04:55:50.059Z,102463.00
2023-03-02T04:58:17.970Z,102463.00
2023-03-02T05:00:45.951Z,102461.25
2023-03-02T05:03:13.881Z,102461.50
2023-03-02T05:05:43.174Z,102464.44
2023-03-02T05:08:11.153Z,102454.72
2023-03-02T05:10:39.093Z,102461.78
2023-03-02T05:13:07.340Z,102465.44
2023-03-02T05:15:37.537Z,102462.03
2023-03-02T05:18:07.325Z,102468.22
2023-03-02T05:20:39.693Z,102461.19
2023-03-02T05:23:10.367Z,102464.22
2023-03-02T05:25:39.400Z,102457.16
2023-03-02T05:28:07.381Z,102454.22
2023-03-02T05:30:37.715Z,102454.59
2023-03-02T05:33:06.213Z,102452.91
2023-03-02T05:35:34.310Z,102446.72
2023-03-02T05:38:02.304Z,102454.09
2023-03-02T05:40:31.679Z,102452.28
2023-03-02T05:43:00.387Z,102449.84
2023-03-02T05:45:30.688Z,102453.53
2023-03-02T05:47:58.940Z,102457.19
2023-03-02T05:50:26.942Z,102458.38
2023-03-02T05:52:55.034Z,102451.34
2023-03-02T05:55:23.017Z,102453.28
2023-03-02T05:57:53.136Z,102457.16
2023-03-02T06:00:22.367Z,102450.97
2023-03-02T06:02:50.434Z,102452.91
2023-03-02T06:05:21.828Z,102451.34
2023-03-02T06:07:49.864Z,102462.16
2023-03-02T06:10:19.128Z,102463.25
2023-03-02T06:12:47.113Z,102457.31
2023-03-02T06:15:16.422Z,102465.44
2023-03-02T06:17:45.597Z,102467.28
2023-03-02T06:20:14.578Z,102470.06
2023-03-02T06:22:45.272Z,102480.91
2023-03-02T06:25:15.210Z,102472.13
2023-03-02T06:27:43.874Z,102478.34
2023-03-02T06:30:15.504Z,102478.34
2023-03-02T06:32:46.030Z,102480.91
2023-03-02T06:35:14.735Z,102476.41
2023-03-02T06:37:44.231Z,102481.75
2023-03-02T06:40:16.473Z,102474.56
2023-03-02T06:42:44.436Z,102481.50
2023-03-02T06:45:14.242Z,102471.53
2023-03-02T06:47:42.269Z,102469.69
2023-03-02T06:50:12.938Z,102477.63
2023-03-02T06:52:40.859Z,102473.72
2023-03-02T06:55:09.703Z,102472.78
2023-03-02T06:57:37.634Z,102476.88
2023-03-02T07:00:10.182Z,102474.09
2023-03-02T07:02:38.760Z,102470.44
2023-03-02T07:05:07.951Z,102476.41
2023-03-02T07:07:37.331Z,102474.56
2023-03-02T07:10:05.950Z,102473.47
2023-03-02T07:12:33.995Z,102468.75
2023-03-02T07:15:02.035Z,102477.25
2023-03-02T07:17:29.938Z,102476.88
2023-03-02T07:19:58.018Z,102465.22
2023-03-02T07:22:26.085Z,102468.47
2023-03-02T07:24:55.395Z,102477.84
2023-03-02T07:27:23.362Z,102467.63
2023-03-02T07:29:51.262Z,102476.25
2023-03-02T07:32:19.341Z,102480.25
2023-03-02T07:34:47.312Z,102477.09
2023-03-02T07:37:15.260Z,102480.97
2023-03-02T07:39:43.319Z,102476.44
2023-03-02T07:42:13.376Z,102484.38
2023-03-02T07:44:43.265Z,102484.13
2023-03-02T07:47:11.302Z,102483.75
2023-03-02T07:49:39.401Z,102485.81
2023-03-02T07:52:07.582Z,102488.09
2023-03-02T07:54:35.597Z,102478.94
2023-03-02T07:57:03.606Z,102480.41
2023-03-02T07:59:32.911Z,102478.06
2023-03-02T08:02:01.019Z,102473.03
2023-03-02T08:04:28.991Z,102479.56
2023-03-02T08:06:56.920Z,102475.78
2023-03-02T08:09:24.816Z,102478.09
2023-03-02T08:11:52.919Z,102481.25
2023-03-02T08:14:20.843Z,102478.19
2023-03-02T08:16:52.247Z,102475.81
2023-03-02T08:19:20.552Z,102479.69
2023-03-02T08:21:48.532Z,102481.13
2023-03-02T08:24:16.619Z,102487.94
2023-03-02T08:26:44.659Z,102484.72
2023-03-02T08:29:12.941Z,102492.25
2023-03-02T08:31:40.922Z,102495.38
2023-03-02T08:34:10.281Z,102501.53
2023-03-02T08:36:38.189Z,102492.69
2023-03-02T08:39:06.116Z,102498.63
2023-03-02T08:41:35.183Z,102500.78
2023-03-02T08:44:03.280Z,102497.03
2023-03-02T08:46:31.582Z,102506.28
2023-03-02T08:48:59.478Z,102505.56
2023-03-02T08:51:29.298Z,102505.63
2023-03-02T08:53:57.383Z,102494.91
2023-03-02T08:56:27.069Z,102507.66
2023-03-02T08:58:56.188Z,102503.44
2023-03-02T09:01:26.528Z,102502.59
2023-03-02T09:03:54.456Z,102509.84
2023-03-02T09:06:22.395Z,102509.00
2023-03-02T09:08:51.783Z,102514.78
2023-03-02T09:11:20.252Z,102508.44
2023-03-02T09:13:48.192Z,102511.56
2023-03-02T09:16:17.286Z,102506.78
2023-03-02T09:18:45.262Z,102509.31
2023-03-02T09:21:13.201Z,102510.88
2023-03-02T09:23:41.148Z,102512.75
2023-03-02T09:26:10.654Z,102506.19
2023-03-02T09:28:39.764Z,102509.31
2023-03-02T09:31:09.412Z,102504.91
2023-03-02T09:33:37.333Z,102514.84
2023-03-02T09:36:11.567Z,102509.97
2023-03-02T09:38:39.571Z,102502.03
2023-03-02T09:41:35.086Z,102514.78
2023-03-02T09:44:09.663Z,102504.72
2023-03-02T09:46:45.326Z,102503.69
2023-03-02T09:49:23.384Z,102505.91
2023-03-02T09:52:03.487Z,102506.16
2023-03-02T09:54:32.355Z,102499.44
2023-03-02T09:57:02.538Z,102500.69
2023-03-02T09:59:34.054Z,102506.09
2023-03-02T10:02:06.301Z,102501.38
2023-03-02T10:04:40.156Z,102504.56
2023-03-02T10:07:14.035Z,102502.00
2023-03-02T10:09:42.628Z,102504.03
2023-03-02T10:12:30.032Z,102508.97
2023-03-02T10:15:02.997Z,102496.91
2023-03-02T10:17:41.568Z,102507.72
2023-03-02T10:20:15.641Z,102508.03
2023-03-02T10:22:49.531Z,102511.28
2023-03-02T10:25:38.555Z,102521.78
2023-03-02T10:28:20.434Z,102511.28
2023-03-02T10:30:52.147Z,102506.41
2023-03-02T10:33:22.275Z,102514.59
2023-03-02T10:35:52.888Z,102512.13
2023-03-02T10:38:22.825Z,102500.63
2023-03-02T10:40:57.082Z,102512.69
2023-03-02T10:43:31.741Z,102515.06
2023-03-02T10:46:01.535Z,102520.63
2023-03-02T10:48:29.910Z,102506.34
2023-03-02T10:51:00.434Z,102506.94
2023-03-02T10:53:29.120Z,102512.66
2023-03-02T10:55:57.168Z,102501.84
2023-03-02T10:58:31.325Z,102504.03
2023-03-02T11:01:01.816Z,102506.28
2023-03-02T11:03:30.801Z,102512.66
2023-03-02T11:06:00.513Z,102515.09
2023-03-02T11:08:29.987Z,102510.47
2023-03-02T11:11:00.951Z,102510.97
2023-03-02T11:13:32.654Z,102510.94
2023-03-02T11:16:02.214Z,102511.34
2023-03-02T11:18:35.840Z,102510.00
2023-03-02T11:21:06.680Z,102517.31
2023-03-02T11:23:42.034Z,102525.22
2023-03-02T11:26:18.076Z,102524.53
2023-03-02T11:28:52.541Z,102518.78
2023-03-02T11:31:29.495Z,102516.97
2023-03-02T11:34:15.672Z,102520.63
2023-03-02T11:36:53.750Z,102515.31
2023-03-02T11:39:28.095Z,102517.88
2023-03-02T11:41:56.059Z,102510.88
2023-03-02T11:44:27.521Z,102511.34
2023-03-02T11:47:00.610Z,102515.25
2023-03-02T11:49:38.033Z,102522.91
2023-03-02T11:52:33.016Z,102506.31
2023-03-02T11:55:05.622Z,102500.72
2023-03-02T11:57:39.327Z,102498.84
2023-03-02T12:00:28.271Z,102494.44
2023-03-02T12:03:05.256Z,102491.91
2023-03-02T12:05:36.684Z,102501.34
2023-03-02T12:08:06.688Z,102492.81
2023-03-02T12:10:39.829Z,102481.75
2023-03-02T12:13:26.678Z,102484.97
2023-03-02T12:15:56.453Z,102477.44
2023-03-02T12:18:49.090Z,102477.72
2023-03-02T12:21:19.790Z,102486.34
2023-03-02T12:24:00.711Z,102473.22
2023-03-02T12:26:36.323Z,102472.75
2023-03-02T12:29:22.620Z,102481.50
2023-03-02T12:31:55.041Z,102483.59
2023-03-02T12:34:37.784Z,102473.09
2023-03-02T12:37:13.715Z,102484.03
2023-03-02T12:40:10.606Z,102475.56
2023-03-02T12:42:50.853Z,102459.41
2023-03-02T12:45:44.870Z,102475.91
2023-03-02T12:48:26.241Z,102468.88
2023-03-02T12:51:00.567Z,102461.00
2023-03-02T12:53:29.978Z,102462.31
2023-03-02T12:55:58.281Z,102462.59
2023-03-02T12:58:28.714Z,102464.84
2023-03-02T13:00:58.446Z,102463.28
2023-03-02T13:03:29.968Z,102449.78
2023-03-02T13:06:05.333Z,102456.69
2023-03-02T13:08:33.720Z,102458.00
2023-03-02T13:11:03.120Z,102446.94
2023-03-02T13:13:37.987Z,102438.38
2023-03-02T13:16:08.294Z,102448.16
2023-03-02T13:18:39.981Z,102445.03
2023-03-02T13:21:12.061Z,102436.22
2023-03-02T13:23:47.198Z,102438.84
2023-03-02T13:26:29.145Z,102437.63
2023-03-02T13:29:06.020Z,102444.13
2023-03-02T13:31:35.446Z,102435.66
2023-03-02T13:34:04.816Z,102431.81
2023-03-02T13:36:37.611Z,102431.06
2023-03-02T13:39:09.097Z,102426.28
2023-03-02T13:41:40.675Z,102431.59
2023-03-02T13:44:19.795Z,102433.72
2023-03-02T13:46:48.539Z,102422.03
2023-03-02T13:49:28.120Z,102432.28
2023-03-02T13:52:02.170Z,102423.75
2023-03-02T13:54:32.697Z,102425.31
2023-03-02T13:57:02.502Z,102412.56
2023-03-02T13:59:32.291Z,102404.09
2023-03-02T14:02:01.171Z,102411.81
2023-03-02T14:04:30.552Z,102414.84
2023-03-02T14:06:58.620Z,102420.53
2023-03-02T14:09:27.203Z,102418.50
2023-03-02T14:11:57.072Z,102417.78
2023-03-02T14:14:27.474Z,102415.41
2023-03-02T14:16:55.425Z,102407.19
2023-03-02T14:19:23.396Z,102405.13
2023-03-02T14:21:52.735Z,102413.72
2023-03-02T14:24:20.680Z,102405.16
2023-03-02T14:26:49.837Z,102412.94
2023-03-02T14:29:27.357Z,102405.50
2023-03-02T14:31:55.880Z,102404.31
2023-03-02T14:34:24.560Z,102400.16
2023-03-02T14:36:55.739Z,102396.69
2023-03-02T14:39:33.195Z,102387.22
2023-03-02T14:42:01.272Z,102392.13
2023-03-02T14:44:29.401Z,102384.91
2023-03-02T14:46:58.423Z,102395.22
2023-03-02T14:49:26.622Z,102386.16
2023-03-02T14:52:03.534Z,102388.09
2023-03-02T14:54:39.357Z,102389.78
2023-03-02T14:57:16.417Z,102387.31
2023-03-02T14:59:44.448Z,102376.75
2023-03-02T15:02:24.447Z,102378.78
2023-03-02T15:04:56.137Z,102379.13
2023-03-02T15:07:27.641Z,102378.13
2023-03-02T15:09:56.143Z,102378.56
2023-03-02T15:12:24.159Z,102368.66
2023-03-02T15:14:52.162Z,102381.69
2023-03-02T15:17:20.212Z,102374.16
2023-03-02T15:19:48.506Z,102360.31
2023-03-02T15:22:16.542Z,102372.84
2023-03-02T15:24:45.953Z,102372.28
2023-03-02T15:27:13.918Z,102362.47
2023-03-02T15:29:44.983Z,102366.72
2023-03-02T15:32:13.315Z,102372.50
2023-03-02T15:34:41.384Z,102365.84
2023-03-02T15:37:11.095Z,102362.06
2023-03-02T15:39:39.388Z,102365.84
2023-03-02T15:42:08.688Z,102363.00
2023-03-02T15:44:36.672Z,102368.88
2023-03-02T15:47:04.788Z,102360.22
2023-03-02T15:49:32.956Z,102365.78
2023-03-02T15:52:01.040Z,102356.38
2023-03-02T15:54:29.856Z,102360.19
2023-03-02T15:56:57.953Z,102358.06
2023-03-02T15:59:29.105Z,102366.97
2023-03-02T16:01:59.365Z,102355.94
2023-03-02T16:04:28.132Z,102363.75
2023-03-02T16:06:56.530Z,102360.59
2023-03-02T16:09:25.081Z,102360.78
2023-03-02T16:11:53.478Z,102355.09
2023-03-02T16:14:21.507Z,102364.56
2023-03-02T16:16:51.190Z,102356.72
2023-03-02T16:19:20.262Z,102357.00
2023-03-02T16:21:48.392Z,102359.72
2023-03-02T16:24:17.068Z,102369.22
2023-03-02T16:26:45.473Z,102369.50
2023-03-02T16:29:14.651Z,102376.47
2023-03-02T16:31:43.310Z,102372.75
2023-03-02T16:34:12.740Z,102378.63
2023-03-02T16:36:42.164Z,102379.06
2023-03-02T16:39:11.589Z,102376.59
2023-03-02T16:41:41.075Z,102389.22
2023-03-02T16:44:09.358Z,102383.22
2023-03-02T16:46:41.872Z,102388.84
2023-03-02T16:49:10.272Z,102382.44
2023-03-02T16:51:40.017Z,102389.75
2023-03-02T16:54:08.153Z,102382.47
2023-03-02T16:56:36.193Z,102397.06
2023-03-02T16:59:06.982Z,102385.41
2023-03-02T17:01:34.938Z,102390.66
2023-03-02T17:04:05.531Z,102394.25
2023-03-02T17:06:33.745Z,102404.84
2023-03-02T17:09:03.129Z,102410.19
2023-03-02T17:11:31.857Z,102415.63
2023-03-02T17:13:59.791Z,102414.97
2023-03-02T17:16:27.838Z,102413.81
2023-03-02T17:18:55.922Z,102418.44
2023-03-02T17:21:25.071Z,102423.66
2023-03-02T17:23:53.019Z,102421.16
2023-03-02T17:26:22.296Z,102422.31
2023-03-02T17:28:50.577Z,102429.75
2023-03-02T17:31:18.594Z,102430.09
2023-03-02T17:33:46.679Z,102431.09
2023-03-02T17:36:15.790Z,102440.94
2023-03-02T17:38:43.924Z,102444.63
2023-03-02T17:41:12.635Z,102450.16
2023-03-02T17:43:43.445Z,102445.72
2023-03-02T17:46:14.815Z,102458.91
2023-03-02T17:48:44.070Z,102454.66
2023-03-02T17:51:14.832Z,102468.34
2023-03-02T17:53:43.126Z,102472.50
2023-03-02T17:56:11.866Z,102471.53
2023-03-02T17:58:45.445Z,102475.88
2023-03-02T18:01:15.853Z,102484.78
2023-03-02T18:03:45.540Z,102486.88
2023-03-02T18:06:14.585Z,102486.69
2023-03-02T18:08:42.566Z,102497.38
2023-03-02T18:11:11.289Z,102498.94
2023-03-02T18:13:40.876Z,102496.31
2023-03-02T18:16:09.306Z,102502.44
2023-03-02T18:18:37.365Z,102510.34
2023-03-02T18:21:06.023Z,102507.25
2023-03-02T18:23:34.447Z,102512.09
2023-03-02T18:26:02.412Z,102517.69
2023-03-02T18:28:30.422Z,102526.69
2023-03-02T18:31:00.181Z,102514.84
2023-03-02T18:33:28.417Z,102533.34
2023-03-02T18:35:57.305Z,102530.25
2023-03-02T18:38:30.647Z,102533.28
2023-03-02T18:40:59.592Z,102538.50
2023-03-02T18:43:28.969Z,102543.00
2023-03-02T18:45:57.747Z,102541.03
2023-03-02T18:48:27.165Z,102541.22
2023-03-02T18:50:55.603Z,102544.81
2023-03-02T18:53:23.547Z,102547.16
2023-03-02T18:55:52.547Z,102553.28
2023-03-02T18:58:22.753Z,102553.88
2023-03-02T19:00:50.925Z,102551.94
2023-03-02T19:03:19.008Z,102557.19
2023-03-02T19:05:48.327Z,102555.50
2023-03-02T19:08:16.618Z,102563.94
2023-03-02T19:10:44.744Z,102569.63
2023-03-02T19:13:12.944Z,102569.63
2023-03-02T19:15:41.701Z,102572.22
2023-03-02T19:18:10.432Z,102572.34
2023-03-02T19:20:41.383Z,102574.91
2023-03-02T19:23:10.719Z,102576.78
2023-03-02T19:25:38.732Z,102577.63
2023-03-02T19:28:07.361Z,102579.94
2023-03-02T19:30:36.749Z,102587.19
2023-03-02T19:33:07.246Z,102582.63
2023-03-02T19:35:35.426Z,102589.16
2023-03-02T19:38:03.406Z,102590.06
2023-03-02T19:40:34.516Z,102589.34
2023-03-02T19:43:03.204Z,102596.72
2023-03-02T19:45:34.933Z,102600.13
2023-03-02T19:48:03.825Z,102598.72
2023-03-02T19:50:31.902Z,102597.44
2023-03-02T19:53:00.209Z,102593.34
2023-03-02T19:55:28.588Z,102597.72
2023-03-02T19:58:00.126Z,102591.66
2023-03-02T20:00:29.981Z,102604.84
2023-03-02T20:02:58.296Z,102600.16
2023-03-02T20:05:27.624Z,102605.84
2023-03-02T20:07:56.168Z,102604.28
2023-03-02T20:10:31.133Z,102601.56
2023-03-02T20:13:01.575Z,102613.34
2023-03-02T20:15:31.739Z,102617.16
2023-03-02T20:18:02.524Z,102622.72
2023-03-02T20:20:31.544Z,102619.16
2023-03-02T20:23:00.580Z,102621.44
2023-03-02T20:25:29.447Z,102623.69
2023-03-02T20:27:58.289Z,102629.09
2023-03-02T20:30:31.601Z,102628.09
2023-03-02T20:33:00.428Z,102639.41
2023-03-02T20:35:30.621Z,102632.47
2023-03-02T20:38:00.994Z,102630.75
2023-03-02T20:40:30.314Z,102646.19
2023-03-02T20:42:58.687Z,102644.91
2023-03-02T20:45:28.129Z,102647.03
2023-03-02T20:47:56.286Z,102646.59
2023-03-02T20:50:29.596Z,102649.41
2023-03-02T20:52:57.644Z,102655.06
2023-03-02T20:55:26.951Z,102647.81
2023-03-02T20:57:55.465Z,102647.81
2023-03-02T21:00:27.143Z,102646.09
2023-03-02T21:02:57.160Z,102659.28
2023-03-02T21:05:26.399Z,102658.41
2023-03-02T21:07:54.666Z,102658.16
2023-03-02T21:10:27.854Z,102672.34
2023-03-02T21:12:59.401Z,102662.00
2023-03-02T21:15:28.209Z,102664.66
2023-03-02T21:17:59.844Z,102666.38
2023-03-02T21:20:30.471Z,102662.69
2023-03-02T21:22:59.369Z,102675.97
2023-03-02T21:25:27.513Z,102675.44
2023-03-02T21:27:56.155Z,102676.56
2023-03-02T21:30:27.961Z,102678.09
2023-03-02T21:32:56.230Z,102672.03
2023-03-02T21:35:25.641Z,102674.91
2023-03-02T21:37:57.189Z,102672.34
2023-03-02T21:40:27.480Z,102673.06
2023-03-02T21:42:56.122Z,102675.03
2023-03-02T21:45:24.500Z,102667.53
2023-03-02T21:47:52.521Z,102666.09
2023-03-02T21:50:23.323Z,102668.13
2023-03-02T21:52:52.625Z,102673.50
2023-03-02T21:55:20.970Z,102667.69
2023-03-02T21:57:49.239Z,102666.41
2023-03-02T22:00:22.483Z,102666.09
2023-03-02T22:02:50.965Z,102669.25
2023-03-02T22:05:20.012Z,102670.50
2023-03-02T22:07:48.598Z,102659.88
2023-03-02T22:10:26.122Z,102664.81
2023-03-02T22:12:57.159Z,102662.84
2023-03-02T22:15:25.149Z,102669.25
2023-03-02T22:17:53.082Z,102668.84
2023-03-02T22:20:21.622Z,102674.06
2023-03-02T22:22:53.125Z,102668.28
2023-03-02T22:25:22.610Z,102668.25
2023-03-02T22:27:50.529Z,102674.34
2023-03-02T22:30:22.208Z,102675.75
2023-03-02T22:32:50.947Z,102670.81
2023-03-02T22:35:25.704Z,102676.03
2023-03-02T22:38:00.868Z,102670.66
2023-03-02T22:40:33.724Z,102671.25
2023-03-02T22:43:12.053Z,102662.75
2023-03-02T22:45:41.395Z,102670.66
2023-03-02T22:48:15.831Z,102668.97
2023-03-02T22:50:45.497Z,102668.50
2023-03-02T22:53:29.301Z,102666.94
2023-03-02T22:56:01.453Z,102662.41
2023-03-02T22:58:33.523Z,102665.56
2023-03-02T23:01:02.595Z,102659.19
2023-03-02T23:03:39.852Z,102661.72
2023-03-02T23:06:23.175Z,102662.69
2023-03-02T23:08:51.876Z,102660.00
2023-03-02T23:11:23.497Z,102666.94
2023-03-02T23:13:53.369Z,102661.00
2023-03-02T23:16:23.990Z,102659.88
2023-03-02T23:18:53.904Z,102674.78
2023-03-02T23:21:25.192Z,102671.78
2023-03-02T23:23:54.736Z,102671.94
2023-03-02T23:26:24.137Z,102674.19
2023-03-02T23:28:52.061Z,102662.28
2023-03-02T23:31:20.258Z,102665.28
2023-03-02T23:33:48.735Z,102665.28
2023-03-02T23:36:16.746Z,102656.78
2023-03-02T23:38:44.688Z,102656.66
2023-03-02T23:41:12.611Z,102652.25
2023-03-02T23:43:42.156Z,102654.09
2023-03-02T23:46:13.894Z,102660.50
2023-03-02T23:48:42.485Z,102657.63
2023-03-02T23:51:10.528Z,102663.03
2023-03-02T23:53:39.076Z,102655.53
2023-03-02T23:56:07.961Z,102654.38
2023-03-02T23:58:36.042Z,102659.53
